Gilead, Maine
Current Conditions -  °F | °C
As of 5:52 AM on Wednesday 26 Nov 2014 (Local Time) from KBML Reporting Station
Clear Clear  
Wind Chill: 34°   Ceiling: Unl
Heat Index: 34°   Visibility: 10mi
Dew Point: 21°   Wind: 3mph
Humidity: 59%   Direction: 30°NNE
Pressure: 30.16"   Gusts: NA
Location:  44.3718°N, 70.8421°W
Report Text: KBML 261052Z AUTO 03003KT 10SM CLR 01/M06 A3016 RMK AO2 SLP226 T00111061
Loading
Personal Weather Stations






























Interactive Weather Map New forecast layout! Learn more

10-Day Weather Forecast

Advertisements
Track Severe Weather on mobile